Time;durP1;ratioP1;P1;durP2;ratioP2;P2;SDS_P1;SDS_P2;PMS_P1;PMS_P2;Temp;Humidity;BMP_temperature;BMP_pressure;BME280_temperature;BME280_humidity;BME280_pressure;Samples;Min_cycle;Max_cycle;Signal;HPM_P1;HPM_P2
2023/04/23 00:01:38;;;;;;;1.70;1.60;;;;;;;14.66;100.00;99496.16;4992230;28;20201;-77
2023/04/23 00:04:05;;;;;;;0.00;0.00;;;;;;;14.65;100.00;99494.56;4990820;28;20657;-77
2023/04/23 00:06:32;;;;;;;1.27;1.27;;;;;;;14.69;100.00;99500.13;4991575;28;20568;-77
2023/04/23 00:08:59;;;;;;;0.00;0.00;;;;;;;14.71;100.00;99495.84;4991908;28;20193;-78
2023/04/23 00:11:25;;;;;;;0.00;0.00;;;;;;;14.76;100.00;99486.53;4991230;28;20362;-77
2023/04/23 00:13:50;;;;;;;0.50;0.50;;;;;;;14.80;100.00;99484.63;4992147;28;20180;-77
2023/04/23 00:16:18;;;;;;;0.00;0.00;;;;;;;14.79;100.00;99483.84;4990976;28;20212;-77
2023/04/23 00:18:43;;;;;;;0.00;0.00;;;;;;;14.81;100.00;99486.22;4991423;28;20181;-78
2023/04/23 00:21:09;;;;;;;0.00;0.00;;;;;;;14.86;100.00;99483.97;4992717;28;20257;-77
2023/04/23 00:23:35;;;;;;;0.00;0.00;;;;;;;14.92;100.00;99481.75;4992039;28;20665;-77
2023/04/23 00:26:00;;;;;;;0.00;0.00;;;;;;;14.88;100.00;99473.41;4991266;28;20200;-78
2023/04/23 00:28:25;;;;;;;0.00;0.00;;;;;;;14.87;100.00;99480.06;4991044;28;20181;-77
2023/04/23 00:30:51;;;;;;;0.00;0.00;;;;;;;15.03;100.00;99479.16;4992381;28;20169;-78
2023/04/23 00:33:16;;;;;;;0.00;0.00;;;;;;;15.09;100.00;99481.28;4990800;28;20173;-79
2023/04/23 00:35:41;;;;;;;0.00;0.00;;;;;;;14.87;100.00;99476.50;4994082;28;20578;-79
2023/04/23 00:38:07;;;;;;;0.67;0.67;;;;;;;14.95;100.00;99485.72;4993105;28;20652;-79
2023/04/23 00:40:32;;;;;;;0.10;0.10;;;;;;;14.87;100.00;99476.50;4994066;28;20208;-80
2023/04/23 00:42:59;;;;;;;0.00;0.00;;;;;;;14.91;100.00;99479.34;4991717;28;20197;-79
2023/04/23 00:45:24;;;;;;;0.00;0.00;;;;;;;14.80;100.00;99468.13;4991522;28;20208;-79
2023/04/23 00:47:50;;;;;;;0.00;0.00;;;;;;;14.74;100.00;99472.31;4994111;28;20181;-79
2023/04/23 00:50:15;;;;;;;0.00;0.00;;;;;;;14.74;100.00;99477.81;4994997;28;20177;-79
2023/04/23 00:52:40;;;;;;;0.00;0.00;;;;;;;14.69;100.00;99475.38;4992807;28;20176;-79
2023/04/23 00:55:07;;;;;;;0.83;0.77;;;;;;;14.62;100.00;99478.78;4992307;28;20287;-79
2023/04/23 00:57:33;;;;;;;0.67;0.67;;;;;;;14.56;100.00;99474.72;4996097;28;20611;-79
2023/04/23 00:59:59;;;;;;;0.00;0.00;;;;;;;14.48;100.00;99478.50;4996267;28;20204;-79
2023/04/23 01:02:27;;;;;;;3.03;0.30;;;;;;;14.42;100.00;99474.41;4995414;28;20299;-79
2023/04/23 01:04:53;;;;;;;2.20;1.13;;;;;;;14.21;100.00;99472.81;4994726;28;20244;-79
2023/04/23 01:07:20;;;;;;;1.03;0.93;;;;;;;14.08;100.00;99470.53;4994765;28;20212;-79
2023/04/23 01:09:46;;;;;;;0.80;0.80;;;;;;;13.99;100.00;99471.50;4995376;28;20227;-78
2023/04/23 01:12:14;;;;;;;1.13;1.00;;;;;;;13.90;100.00;99473.69;4994321;28;20169;-77
2023/04/23 01:14:40;;;;;;;0.80;0.80;;;;;;;13.84;100.00;99471.56;4993125;28;20196;-79
2023/04/23 01:17:07;;;;;;;2.10;1.90;;;;;;;13.78;100.00;99473.00;4994915;28;20545;-78
2023/04/23 01:19:32;;;;;;;8.70;1.13;;;;;;;13.76;100.00;99473.34;4994827;28;20181;-79
2023/04/23 01:22:00;;;;;;;0.93;0.73;;;;;;;13.72;100.00;99466.16;4994985;28;20280;-78
2023/04/23 01:24:27;;;;;;;0.17;0.17;;;;;;;13.66;100.00;99466.44;4994116;28;20213;-79
2023/04/23 01:26:53;;;;;;;1.07;1.07;;;;;;;13.61;100.00;99466.72;4995638;28;20260;-79
2023/04/23 01:29:19;;;;;;;0.33;0.33;;;;;;;13.59;100.00;99463.50;4994830;28;20264;-78
2023/04/23 01:31:45;;;;;;;0.50;0.40;;;;;;;13.57;100.00;99471.31;4994975;28;20173;-79
2023/04/23 01:34:12;;;;;;;0.60;0.60;;;;;;;13.57;100.00;99474.06;4992972;28;20228;-79
2023/04/23 01:36:37;;;;;;;1.73;1.63;;;;;;;13.53;100.00;99472.38;4994518;28;20260;-79
2023/04/23 01:39:03;;;;;;;5.73;2.27;;;;;;;13.51;100.00;99464.50;4997140;28;20208;-79
2023/04/23 01:41:29;;;;;;;2.13;1.93;;;;;;;13.45;100.00;99476.88;4995170;28;20729;-79
2023/04/23 01:43:56;;;;;;;2.17;1.97;;;;;;;13.40;100.00;99466.19;4992376;28;20181;-78
2023/04/23 01:46:21;;;;;;;2.13;2.03;;;;;;;13.37;100.00;99466.91;4994641;28;20177;-79
2023/04/23 01:48:47;;;;;;;1.10;1.00;;;;;;;13.35;100.00;99469.19;4994637;28;20181;-79
2023/04/23 01:51:12;;;;;;;1.67;1.57;;;;;;;13.32;100.00;99475.41;4998510;28;20173;-79
2023/04/23 01:53:37;;;;;;;2.43;2.23;;;;;;;13.28;100.00;99479.97;4997700;28;20267;-79
2023/04/23 01:56:04;;;;;;;2.83;2.63;;;;;;;13.25;100.00;99486.97;4998525;28;20283;-79
2023/04/23 01:58:29;;;;;;;2.20;2.00;;;;;;;13.21;100.00;99488.84;4998336;28;20192;-79
2023/04/23 02:00:55;;;;;;;2.43;1.97;;;;;;;13.17;100.00;99493.41;4997090;28;20209;-79
2023/04/23 02:03:20;;;;;;;2.80;2.60;;;;;;;13.10;100.00;99488.53;4998023;28;20193;-78
2023/04/23 02:05:46;;;;;;;0.70;0.70;;;;;;;13.07;100.00;99491.16;4997037;28;20207;-79
2023/04/23 02:08:12;;;;;;;3.10;1.30;;;;;;;13.02;100.00;99491.44;4997005;28;20197;-79
2023/04/23 02:10:37;;;;;;;1.93;1.53;;;;;;;12.96;100.00;99490.88;4998789;28;20173;-78
2023/04/23 02:13:03;;;;;;;8.53;2.40;;;;;;;12.92;100.00;99500.16;4996923;28;20231;-78
2023/04/23 02:15:28;;;;;;;5.70;4.73;;;;;;;12.86;100.00;99496.84;4998418;28;20266;-79
2023/04/23 02:17:54;;;;;;;10.97;2.67;;;;;;;12.82;100.00;99502.25;4998266;28;20175;-79
2023/04/23 02:20:23;;;;;;;6.40;5.90;;;;;;;12.76;100.00;99500.13;4997851;28;20180;-79
2023/04/23 02:22:49;;;;;;;18.20;5.93;;;;;;;12.71;100.00;99497.59;4997226;28;20630;-79
2023/04/23 02:25:16;;;;;;;3.27;3.07;;;;;;;12.66;100.00;99506.88;4996411;28;20201;-79
2023/04/23 02:27:42;;;;;;;6.57;6.07;;;;;;;12.61;100.00;99511.81;4997854;28;20240;-79
2023/04/23 02:30:10;;;;;;;9.60;8.50;;;;;;;12.54;100.00;99514.34;4998339;28;20181;-79
2023/04/23 02:32:36;;;;;;;7.30;5.97;;;;;;;12.50;100.00;99515.03;4996602;28;20201;-78
2023/04/23 02:35:02;;;;;;;4.37;4.07;;;;;;;12.46;100.00;99516.91;4997795;28;20223;-78
2023/04/23 02:37:27;;;;;;;2.27;2.07;;;;;;;12.45;100.00;99509.81;4997717;28;20277;-79
2023/04/23 02:39:53;;;;;;;7.03;2.67;;;;;;;12.43;100.00;99520.31;4997956;28;20188;-79
2023/04/23 02:42:18;;;;;;;8.53;4.13;;;;;;;12.38;100.00;99522.50;4998784;28;20204;-79
2023/04/23 02:44:44;;;;;;;4.07;3.77;;;;;;;12.34;100.00;99516.91;4998446;28;20201;-79
2023/04/23 02:47:09;;;;;;;3.13;2.93;;;;;;;12.28;100.00;99521.03;4999866;28;20175;-79
2023/04/23 02:49:35;;;;;;;7.60;4.63;;;;;;;12.23;100.00;99517.72;4999281;28;20177;-79
2023/04/23 02:52:01;;;;;;;1.40;1.33;;;;;;;12.21;100.00;99523.56;4997713;28;20183;-79
2023/04/23 02:54:26;;;;;;;6.50;5.87;;;;;;;12.16;100.00;99519.13;4996713;28;20226;-79
2023/04/23 02:56:51;;;;;;;5.57;3.67;;;;;;;12.11;100.00;99522.06;4999417;28;20183;-79
2023/04/23 02:59:17;;;;;;;5.47;1.57;;;;;;;12.13;100.00;99521.72;4999034;28;20248;-78
2023/04/23 03:01:42;;;;;;;3.87;3.57;;;;;;;12.11;100.00;99518.53;4998673;28;20259;-79
2023/04/23 03:04:08;;;;;;;5.50;3.73;;;;;;;12.07;100.00;99523.13;5016734;23;20251;-86
2023/04/23 03:06:34;;;;;;;1.07;1.03;;;;;;;12.05;100.00;99525.41;4993713;28;20212;-86
2023/04/23 03:09:00;;;;;;;2.93;2.73;;;;;;;12.02;100.00;99523.34;4994766;28;20644;-86
2023/04/23 03:11:27;;;;;;;5.77;5.30;;;;;;;12.00;100.00;99528.34;4995025;28;20177;-87
2023/04/23 03:13:53;;;;;;;4.83;2.53;;;;;;;11.99;100.00;99527.56;4993254;28;20209;-87
2023/04/23 03:16:21;;;;;;;3.43;3.13;;;;;;;12.00;100.00;99528.34;4993472;28;20662;-87
2023/04/23 03:18:47;;;;;;;5.03;4.63;;;;;;;11.99;100.00;99534.97;4993234;28;20173;-87
2023/04/23 03:21:12;;;;;;;2.47;2.33;;;;;;;11.96;100.00;99521.97;4993204;28;20201;-87
2023/04/23 03:23:37;;;;;;;4.30;3.90;;;;;;;11.93;100.00;99531.69;4994554;28;20416;-87
2023/04/23 03:26:03;;;;;;;18.43;4.73;;;;;;;11.89;100.00;99534.31;4994598;28;20201;-87
2023/04/23 03:28:29;;;;;;;1.80;1.70;;;;;;;11.89;100.00;99534.31;4994596;28;20264;-87
2023/04/23 03:30:55;;;;;;;1.13;1.13;;;;;;;11.90;100.00;99535.09;4994420;28;20256;-87
2023/04/23 03:33:28;;;;;;;4.40;4.03;;;;;;;11.85;100.00;99532.59;4994158;28;20280;-87
2023/04/23 03:35:53;;;;;;;3.87;3.67;;;;;;;11.83;100.00;99535.66;4993568;28;20178;-87
2023/04/23 03:38:18;;;;;;;4.03;3.10;;;;;;;11.82;100.00;99538.75;4992988;28;20204;-87
2023/04/23 03:40:44;;;;;;;4.53;3.93;;;;;;;11.79;100.00;99536.69;4994333;28;20209;-86
2023/04/23 03:43:12;;;;;;;3.83;3.63;;;;;;;11.75;100.00;99546.69;4994265;28;20196;-87
2023/04/23 03:45:38;;;;;;;2.00;1.90;;;;;;;11.71;100.00;99546.56;4994058;28;20200;-87
2023/04/23 03:48:06;;;;;;;4.17;2.67;;;;;;;11.70;100.00;99541.44;4992754;28;20277;-87
2023/04/23 03:50:34;;;;;;;8.23;7.43;;;;;;;11.69;100.00;99550.78;4994011;28;20211;-87
2023/04/23 03:53:00;;;;;;;5.13;4.73;;;;;;;11.61;100.00;99549.75;4992834;28;20204;-87
2023/04/23 03:55:27;;;;;;;5.03;4.57;;;;;;;11.59;100.00;99554.78;4994130;28;20173;-87
2023/04/23 03:57:55;;;;;;;13.60;10.63;;;;;;;11.56;100.00;99553.50;4993000;28;20656;-87
2023/04/23 04:00:24;;;;;;;5.00;4.60;;;;;;;11.51;100.00;99552.94;4992431;28;20178;-87
2023/04/23 04:02:49;;;;;;;12.30;10.83;;;;;;;11.49;100.00;99558.75;4992544;28;20213;-87
2023/04/23 04:05:15;;;;;;;9.80;6.30;;;;;;;11.50;100.00;99565.00;4992747;28;20192;-87
2023/04/23 04:07:41;;;;;;;10.87;9.93;;;;;;;11.43;100.00;99567.50;4993849;28;20174;-87
2023/04/23 04:10:06;;;;;;;9.67;8.53;;;;;;;11.40;100.00;99557.22;4993911;28;20308;-87
2023/04/23 04:12:32;;;;;;;14.27;6.73;;;;;;;11.37;100.00;99561.44;4992868;28;20615;-87
2023/04/23 04:14:57;;;;;;;11.07;9.77;;;;;;;11.35;100.00;99562.94;4993561;28;20177;-86
2023/04/23 04:17:23;;;;;;;10.33;9.30;;;;;;;11.33;100.00;99566.00;4992026;28;20610;-86
2023/04/23 04:19:48;;;;;;;6.53;5.60;;;;;;;11.30;100.00;99572.97;4992528;28;20207;-87
2023/04/23 04:22:15;;;;;;;6.63;5.80;;;;;;;11.29;100.00;99582.28;4992102;28;20209;-87
2023/04/23 04:24:40;;;;;;;8.47;7.60;;;;;;;11.28;100.00;99575.22;4993042;28;20181;-87
2023/04/23 04:27:06;;;;;;;8.77;7.97;;;;;;;11.26;100.00;99584.88;4993427;28;20260;-87
2023/04/23 04:29:32;;;;;;;8.87;8.07;;;;;;;11.22;100.00;99584.75;4993181;28;20175;-87
2023/04/23 04:32:00;;;;;;;14.67;6.47;;;;;;;11.19;100.00;99590.13;4992002;28;20800;-86
2023/04/23 04:34:26;;;;;;;12.87;10.37;;;;;;;11.14;100.00;99590.31;4992887;28;20197;-87
2023/04/23 04:36:54;;;;;;;4.67;4.30;;;;;;;11.11;100.00;99591.78;4992309;28;20235;-86
2023/04/23 04:39:20;;;;;;;9.07;6.60;;;;;;;11.11;100.00;99589.03;4993570;28;20177;-86
2023/04/23 04:41:48;;;;;;;7.23;6.70;;;;;;;11.12;100.00;99596.09;4992073;28;20204;-87
2023/04/23 04:44:17;;;;;;;16.73;4.47;;;;;;;11.11;100.00;99608.19;4991177;28;20201;-87
2023/04/23 04:46:42;;;;;;;10.10;9.10;;;;;;;11.11;100.00;99610.91;4992470;28;20181;-88
2023/04/23 04:49:11;;;;;;;12.50;11.33;;;;;;;11.12;100.00;99611.72;4992017;28;20192;-87
2023/04/23 04:51:40;;;;;;;12.77;11.40;;;;;;;11.07;100.00;99615.47;4992190;28;20551;-87
2023/04/23 04:54:06;;;;;;;14.37;12.90;;;;;;;11.03;100.00;99609.06;4991575;28;20595;-87
2023/04/23 04:56:34;;;;;;;17.70;15.27;;;;;;;11.06;100.00;99605.66;4991558;28;20190;-86
2023/04/23 04:59:01;;;;;;;16.33;10.90;;;;;;;11.07;100.00;99603.72;4993172;28;20183;-87
2023/04/23 05:01:30;;;;;;;13.50;9.83;;;;;;;11.07;100.00;99607.25;4992421;28;20276;-87
2023/04/23 05:03:58;;;;;;;19.07;12.00;;;;;;;11.07;100.00;99617.41;4992713;28;20610;-87
2023/04/23 05:06:27;;;;;;;12.70;10.67;;;;;;;11.07;100.00;99625.59;4993285;28;20173;-87
2023/04/23 05:08:53;;;;;;;11.17;10.03;;;;;;;11.07;100.00;99634.59;5000186;28;20173;-88
2023/04/23 05:11:22;;;;;;;6.67;6.17;;;;;;;11.05;100.00;99630.59;5007665;28;20177;-87
2023/04/23 05:13:55;;;;;;;13.60;12.37;;;;;;;11.03;100.00;99636.41;5007698;28;20627;-88
2023/04/23 05:16:20;;;;;;;12.93;9.83;;;;;;;11.02;100.00;99627.41;5005932;28;20176;-87
2023/04/23 05:18:46;;;;;;;14.67;11.50;;;;;;;11.01;100.00;99633.22;4993026;28;20181;-86
2023/04/23 05:21:11;;;;;;;13.70;10.43;;;;;;;10.98;100.00;99628.38;4992624;28;20312;-87
2023/04/23 05:23:40;;;;;;;5.83;5.50;;;;;;;11.01;100.00;99627.75;4992153;28;20226;-87
2023/04/23 05:26:05;;;;;;;7.80;6.87;;;;;;;10.96;100.00;99626.00;4995240;28;20173;-87
2023/04/23 05:28:30;;;;;;;6.73;6.17;;;;;;;10.96;100.00;99630.66;4996488;28;20183;-87
2023/04/23 05:30:57;;;;;;;9.77;8.90;;;;;;;10.99;100.00;99643.66;4996508;28;20177;-87
2023/04/23 05:33:22;;;;;;;5.00;4.63;;;;;;;11.01;100.00;99641.41;4994918;28;20205;-87
2023/04/23 05:35:51;;;;;;;8.37;4.17;;;;;;;11.02;100.00;99641.06;4995108;28;20346;-86
2023/04/23 05:38:16;;;;;;;0.43;0.43;;;;;;;11.09;100.00;99646.00;4995149;28;20651;-88
2023/04/23 05:40:42;;;;;;;1.93;1.40;;;;;;;11.16;100.00;99646.28;4995075;28;20203;-87
2023/04/23 05:43:07;;;;;;;0.70;0.60;;;;;;;11.19;100.00;99644.78;4996354;28;20201;-88
2023/04/23 05:45:36;;;;;;;0.77;0.50;;;;;;;11.28;100.00;99654.53;4994733;28;20667;-87
2023/04/23 05:48:01;;;;;;;0.87;0.87;;;;;;;11.34;100.00;99649.66;4994903;28;20185;-88
2023/04/23 05:50:26;;;;;;;0.20;0.20;;;;;;;11.38;100.00;99647.81;4995213;28;20185;-87
2023/04/23 05:52:52;;;;;;;3.80;2.70;;;;;;;11.36;100.00;99657.50;4994731;28;20244;-87
2023/04/23 05:55:19;;;;;;;2.30;0.97;;;;;;;11.33;100.00;99654.31;4994983;28;20181;-88
2023/04/23 05:57:51;;;;;;;0.30;0.30;;;;;;;11.39;100.00;99657.63;4995019;28;20177;-87
2023/04/23 06:00:17;;;;;;;0.30;0.30;;;;;;;11.40;100.00;99659.22;4995075;28;20202;-88
2023/04/23 06:02:50;;;;;;;0.33;0.33;;;;;;;11.39;100.00;99663.09;4995259;28;20307;-88
2023/04/23 06:05:16;;;;;;;1.77;1.67;;;;;;;11.39;100.00;99668.56;4995746;28;20215;-87
2023/04/23 06:07:47;;;;;;;1.00;1.00;;;;;;;11.41;100.00;99669.03;4994601;28;20215;-87
2023/04/23 06:10:15;;;;;;;2.43;2.33;;;;;;;11.36;100.00;99676.66;4994728;28;20214;-87
2023/04/23 06:12:43;;;;;;;5.23;4.83;;;;;;;11.23;100.00;99671.13;4994551;28;20193;-86
2023/04/23 06:15:10;;;;;;;25.17;11.17;;;;;;;11.04;100.00;99676.28;4994709;28;20280;-88
2023/04/23 06:17:35;;;;;;;16.60;12.63;;;;;;;10.93;100.00;99667.66;4994521;28;20239;-87
2023/04/23 06:20:01;;;;;;;14.00;12.53;;;;;;;10.91;100.00;99672.66;4994535;28;20632;-88
2023/04/23 06:22:26;;;;;;;13.93;12.70;;;;;;;10.87;100.00;99676.41;4995449;28;20235;-87
2023/04/23 06:24:52;;;;;;;9.07;8.27;;;;;;;10.86;100.00;99663.88;4993961;28;20267;-87
2023/04/23 06:27:17;;;;;;;8.43;6.00;;;;;;;10.92;100.00;99674.25;4994174;28;20271;-87
2023/04/23 06:29:43;;;;;;;10.93;9.07;;;;;;;10.87;100.00;99670.94;4995396;28;20181;-86
2023/04/23 06:32:08;;;;;;;3.67;3.33;;;;;;;10.89;100.00;99674.13;4995610;28;20244;-86
2023/04/23 06:34:34;;;;;;;8.33;7.27;;;;;;;10.88;100.00;99669.81;4995223;28;20263;-87
2023/04/23 06:36:59;;;;;;;8.93;7.27;;;;;;;10.90;100.00;99676.53;4993589;28;20177;-87
2023/04/23 06:39:27;;;;;;;7.60;6.73;;;;;;;10.87;100.00;99668.19;4994571;28;20647;-86
2023/04/23 06:41:56;;;;;;;12.20;5.47;;;;;;;10.93;100.00;99675.06;4994015;28;20216;-85
2023/04/23 06:44:28;;;;;;;0.77;0.77;;;;;;;10.96;100.00;99660.72;4993382;28;20233;-86
2023/04/23 06:46:55;;;;;;;13.13;2.57;;;;;;;10.99;100.00;99654.59;4993861;28;20203;-86
2023/04/23 06:49:23;;;;;;;9.30;6.40;;;;;;;11.03;100.00;99661.81;4993976;28;20195;-86
2023/04/23 06:51:49;;;;;;;5.10;4.23;;;;;;;11.08;100.00;99666.25;4995161;28;20683;-87
2023/04/23 06:54:14;;;;;;;5.20;4.80;;;;;;;11.11;100.00;99671.06;4993510;28;20199;-86
2023/04/23 06:56:39;;;;;;;30.83;8.87;;;;;;;11.11;100.00;99667.53;4994020;28;20185;-87
2023/04/23 06:59:05;;;;;;;5.57;5.17;;;;;;;11.16;100.00;99659.94;4994215;28;20208;-87
2023/04/23 07:01:30;;;;;;;4.70;4.10;;;;;;;11.24;100.00;99661.78;4993682;28;20299;-86
2023/04/23 07:03:56;;;;;;;2.47;2.30;;;;;;;11.32;100.00;99666.38;4993449;28;20227;-88
2023/04/23 07:06:24;;;;;;;9.60;5.70;;;;;;;11.30;100.00;99663.19;4993659;28;20181;-87
2023/04/23 07:08:52;;;;;;;11.77;8.43;;;;;;;11.32;100.00;99657.38;4994935;28;20205;-87
2023/04/23 07:11:18;;;;;;;0.57;0.57;;;;;;;11.44;100.00;99664.84;4993636;28;20192;-87
2023/04/23 07:13:44;;;;;;;0.90;0.90;;;;;;;11.43;100.00;99657.75;4994975;28;20192;-87
2023/04/23 07:16:10;;;;;;;2.57;2.40;;;;;;;11.49;100.00;99649.00;4994510;28;20262;-87
2023/04/23 07:18:35;;;;;;;4.97;4.47;;;;;;;11.59;100.00;99643.13;4993447;28;20270;-87
2023/04/23 07:21:03;;;;;;;4.67;4.30;;;;;;;11.60;100.00;99641.19;4993937;28;20548;-87
2023/04/23 07:23:31;;;;;;;7.63;5.87;;;;;;;11.55;100.00;99642.19;4994072;28;20719;-88
2023/04/23 07:25:56;;;;;;;2.67;2.47;;;;;;;11.50;100.00;99641.59;4994356;28;20177;-87
2023/04/23 07:28:21;;;;;;;3.50;3.30;;;;;;;11.70;100.00;99640.75;4994391;28;20207;-87
2023/04/23 07:30:47;;;;;;;14.90;12.23;;;;;;;11.68;100.00;99648.50;4994322;28;20223;-87
2023/04/23 07:33:13;;;;;;;8.97;8.07;;;;;;;11.69;100.00;99641.09;4992066;28;20209;-87
2023/04/23 07:35:41;;;;;;;14.87;10.17;;;;;;;11.78;100.00;99650.00;4993634;28;20185;-87
2023/04/23 07:38:09;;;;;;;11.97;10.77;;;;;;;11.70;100.00;99639.94;4992643;28;20712;-87
2023/04/23 07:40:37;;;;;;;12.03;6.33;;;;;;;11.65;100.00;99640.16;4992686;28;20197;-87
2023/04/23 07:43:03;;;;;;;14.00;9.50;;;;;;;11.56;100.00;99637.50;4993542;28;20209;-87
2023/04/23 07:45:28;;;;;;;9.40;8.10;;;;;;;11.54;99.37;99648.00;4993560;28;20284;-87
2023/04/23 07:47:54;;;;;;;2.47;2.37;;;;;;;11.62;100.00;99644.38;4993539;28;20631;-87
2023/04/23 07:50:19;;;;;;;5.27;4.23;;;;;;;11.77;100.00;99642.94;4993099;28;20207;-87
2023/04/23 07:52:48;;;;;;;17.50;3.20;;;;;;;11.89;100.00;99632.84;4993956;28;20197;-87
2023/04/23 07:55:20;;;;;;;0.93;0.93;;;;;;;12.10;100.00;99634.69;4994086;28;20184;-87
2023/04/23 07:57:48;;;;;;;3.97;3.67;;;;;;;12.23;100.00;99630.81;4993115;28;20188;-87
2023/04/23 08:00:17;;;;;;;1.50;1.40;;;;;;;12.31;100.00;99623.63;4993195;28;20190;-89
2023/04/23 08:02:52;;;;;;;13.90;8.37;;;;;;;12.33;97.59;99611.19;4991704;28;20303;-88
2023/04/23 08:05:26;;;;;;;4.33;2.67;;;;;;;12.43;92.74;99610.69;4992443;28;20612;-89
2023/04/23 08:07:58;;;;;;;6.93;5.43;;;;;;;12.55;92.49;99618.13;4993161;28;20180;-88
2023/04/23 08:13:00;;;;;;;5.57;2.77;;;;;;;12.71;93.22;99615.47;4993913;28;20196;-86
2023/04/23 08:15:37;;;;;;;7.03;6.43;;;;;;;12.79;94.96;99614.53;4992728;28;20173;-88
2023/04/23 08:18:08;;;;;;;3.33;3.13;;;;;;;12.84;95.74;99617.03;4994100;28;20239;-87
2023/04/23 08:20:36;;;;;;;0.67;0.67;;;;;;;12.95;95.84;99625.59;4992831;28;20180;-88
2023/04/23 08:23:12;;;;;;;9.30;8.43;;;;;;;12.82;94.54;99614.63;4992379;28;20219;-87
2023/04/23 08:25:44;;;;;;;1.37;0.83;;;;;;;12.78;92.44;99602.78;4992280;28;20185;-88
2023/04/23 08:28:16;;;;;;;10.50;8.07;;;;;;;12.99;92.73;99608.06;4992505;28;20188;-88
2023/04/23 08:30:44;;;;;;;6.70;2.30;;;;;;;13.00;90.77;99604.19;4992553;28;20586;-89
2023/04/23 08:33:15;;;;;;;8.70;8.00;;;;;;;13.20;88.37;99601.66;4992352;28;20214;-90
2023/04/23 08:35:55;;;;;;;3.53;3.20;;;;;;;13.36;88.06;99599.75;4992403;28;20189;-92
2023/04/23 08:38:28;;;;;;;4.03;2.63;;;;;;;13.39;86.58;99590.81;4992979;28;20175;-87
2023/04/23 08:41:04;;;;;;;5.90;5.33;;;;;;;13.39;83.92;99588.06;4992408;28;20205;-88
2023/04/23 08:43:36;;;;;;;4.87;4.47;;;;;;;13.43;80.61;99585.41;4992257;28;20263;-86
2023/04/23 08:46:05;;;;;;;5.83;5.30;;;;;;;13.54;79.49;99589.22;4991790;28;20606;-88
2023/04/23 08:48:35;;;;;;;1.00;0.97;;;;;;;13.68;77.83;99581.38;4992457;28;20177;-87
2023/04/23 08:51:05;;;;;;;8.50;5.77;;;;;;;13.92;76.05;99578.47;4992132;28;20545;-88
2023/04/23 08:53:31;;;;;;;3.20;2.43;;;;;;;13.94;72.78;99558.88;4991885;28;20209;-86
2023/04/23 08:55:58;;;;;;;6.17;3.40;;;;;;;14.06;71.36;99550.56;4992646;28;20177;-87
2023/04/23 08:58:26;;;;;;;7.10;6.50;;;;;;;14.03;72.55;99561.44;4991540;28;20232;-87
2023/04/23 09:00:53;;;;;;;2.17;1.97;;;;;;;14.05;72.00;99570.13;4991922;28;20211;-87
2023/04/23 09:03:23;;;;;;;3.17;2.77;;;;;;;14.35;74.35;99576.72;5018987;23;20231;-85
2023/04/23 09:05:49;;;;;;;5.63;5.13;;;;;;;14.28;70.20;99547.13;5032370;28;20209;-85
2023/04/23 09:08:15;;;;;;;2.80;2.53;;;;;;;14.36;71.75;99558.28;5017897;28;20180;-85
2023/04/23 09:10:42;;;;;;;6.20;1.37;;;;;;;14.33;71.68;99556.25;5016383;28;20176;-85
2023/04/23 09:13:07;;;;;;;1.03;0.93;;;;;;;14.45;69.91;99550.66;5015537;28;20196;-84
2023/04/23 09:15:37;;;;;;;5.20;2.43;;;;;;;14.49;69.89;99541.34;5014880;28;20187;-85
2023/04/23 09:18:03;;;;;;;3.00;2.80;;;;;;;14.63;70.53;99538.13;5016885;28;20187;-85
2023/04/23 09:20:28;;;;;;;4.73;4.27;;;;;;;14.73;69.95;99548.53;5015421;28;20635;-85
2023/04/23 09:22:54;;;;;;;2.50;2.30;;;;;;;14.70;68.47;99541.00;5015707;28;20200;-84
2023/04/23 09:25:21;;;;;;;12.37;2.67;;;;;;;14.80;69.39;99542.38;5017674;28;20173;-84
2023/04/23 09:27:48;;;;;;;2.03;1.93;;;;;;;14.80;68.43;99534.13;5015486;28;20181;-86
2023/04/23 09:30:14;;;;;;;4.33;3.90;;;;;;;14.82;66.63;99532.63;5016228;28;20675;-85
2023/04/23 09:32:42;;;;;;;4.20;3.87;;;;;;;14.89;67.64;99535.50;5016217;28;20666;-84
2023/04/23 09:35:09;;;;;;;4.27;3.87;;;;;;;14.95;66.87;99521.47;5016168;28;20239;-85
2023/04/23 09:37:35;;;;;;;4.33;3.93;;;;;;;15.03;66.75;99534.19;5018085;28;20255;-84
2023/04/23 09:40:03;;;;;;;2.50;2.30;;;;;;;15.26;67.55;99535.03;5016137;28;20176;-85
2023/04/23 09:42:29;;;;;;;0.17;0.17;;;;;;;15.38;65.95;99518.34;5016568;28;20200;-86
2023/04/23 09:45:06;;;;;;;1.63;1.53;;;;;;;15.58;65.19;99519.06;5017663;28;20212;-85
2023/04/23 09:47:33;;;;;;;4.47;4.07;;;;;;;15.64;65.17;99520.41;5016372;28;20251;-85
2023/04/23 09:49:59;;;;;;;1.00;1.00;;;;;;;15.65;66.48;99524.75;5015770;28;20263;-85
2023/04/23 09:52:24;;;;;;;4.70;4.20;;;;;;;15.72;65.26;99524.84;5017376;28;20212;-84
2023/04/23 09:54:50;;;;;;;5.43;3.33;;;;;;;15.66;61.69;99500.75;5018012;28;20188;-84
2023/04/23 09:57:15;;;;;;;4.93;3.03;;;;;;;15.41;61.66;99505.81;5016447;28;20267;-85
2023/04/23 09:59:41;;;;;;;1.63;1.53;;;;;;;15.57;63.16;99514.75;5014466;28;20200;-85
2023/04/23 10:02:08;;;;;;;0.87;0.87;;;;;;;15.78;63.84;99511.59;5013344;28;20240;-85
2023/04/23 10:04:34;;;;;;;1.43;1.37;;;;;;;15.95;62.72;99502.00;5013627;28;20200;-84
2023/04/23 10:07:02;;;;;;;3.17;2.87;;;;;;;15.89;61.16;99490.50;5013989;28;20172;-84
2023/04/23 10:09:28;;;;;;;0.33;0.33;;;;;;;15.95;61.76;99488.22;5028558;28;20665;-84
2023/04/23 10:11:54;;;;;;;1.90;1.80;;;;;;;16.24;63.07;99501.25;5014958;28;20173;-84
2023/04/23 10:14:21;;;;;;;2.70;1.53;;;;;;;16.30;61.60;99488.72;5015045;28;20199;-84
2023/04/23 10:16:49;;;;;;;4.13;3.73;;;;;;;16.21;61.88;99488.22;5016426;28;20223;-84
2023/04/23 10:19:18;;;;;;;4.97;4.53;;;;;;;16.10;60.72;99475.47;5015279;28;20196;-84
2023/04/23 10:21:47;;;;;;;3.33;1.23;;;;;;;15.97;60.92;99475.66;5014756;28;20232;-84
2023/04/23 10:24:16;;;;;;;1.07;1.00;;;;;;;15.96;60.93;99468.56;5014309;28;20235;-84
2023/04/23 10:26:43;;;;;;;7.93;2.00;;;;;;;16.14;62.18;99479.84;5014830;28;20207;-85
2023/04/23 10:29:16;;;;;;;1.20;1.20;;;;;;;16.47;61.94;99484.63;5014807;28;20172;-84
2023/04/23 10:31:41;;;;;;;0.00;0.00;;;;;;;16.68;62.44;99491.63;5014451;28;20171;-84
2023/04/23 10:34:09;;;;;;;0.77;0.63;;;;;;;16.84;61.11;99457.13;5014869;28;20196;-84
2023/04/23 10:36:37;;;;;;;1.87;1.77;;;;;;;16.66;60.24;99453.34;5016395;28;20176;-84
2023/04/23 10:39:07;;;;;;;0.20;0.20;;;;;;;16.46;60.22;99457.41;5016645;28;20173;-84
2023/04/23 10:41:38;;;;;;;1.70;1.60;;;;;;;16.69;61.49;99480.19;5016153;28;20199;-84
2023/04/23 10:44:11;;;;;;;0.03;0.03;;;;;;;16.90;60.14;99460.31;5014574;28;20688;-84
2023/04/23 10:46:37;;;;;;;0.00;0.00;;;;;;;17.16;59.94;99470.47;5015171;28;20727;-84
2023/04/23 10:49:14;;;;;;;3.23;3.03;;;;;;;17.24;58.48;99453.59;5016353;28;20196;-83
2023/04/23 10:51:41;;;;;;;1.70;1.60;;;;;;;17.26;58.70;99455.97;5014617;28;20172;-84
2023/04/23 10:55:07;;;;;;;0.77;0.77;;;;;;;17.23;57.58;99443.72;5014152;28;20196;-84
2023/04/23 10:58:00;;;;;;;2.23;1.50;;;;;;;17.12;57.70;99445.59;5015740;28;20175;-84
2023/04/23 11:00:27;;;;;;;1.93;1.80;;;;;;;17.38;59.05;99452.94;5016381;28;20192;-84
2023/04/23 11:02:52;;;;;;;0.47;0.47;;;;;;;17.41;57.55;99443.09;5014421;28;20223;-84
2023/04/23 11:05:18;;;;;;;2.80;2.30;;;;;;;17.40;58.27;99444.25;5014712;28;20176;-84
2023/04/23 11:08:02;;;;;;;0.10;0.10;;;;;;;17.46;59.22;99456.53;5014127;28;20176;-84
2023/04/23 11:10:27;;;;;;;2.27;2.17;;;;;;;17.32;57.55;99437.88;5014079;28;20647;-84
2023/04/23 11:12:54;;;;;;;2.73;2.53;;;;;;;17.42;56.83;99430.88;5013500;28;20279;-84
2023/04/23 11:15:20;;;;;;;2.33;2.10;;;;;;;17.41;56.69;99432.03;5015044;28;20203;-84
2023/04/23 11:17:47;;;;;;;2.93;2.33;;;;;;;17.39;58.16;99432.44;5014832;28;20172;-84
2023/04/23 11:20:19;;;;;;;0.00;0.00;;;;;;;17.34;57.27;99416.19;5013994;28;20647;-84
2023/04/23 11:22:46;;;;;;;0.73;0.73;;;;;;;17.65;57.81;99431.44;5014891;28;20212;-85
2023/04/23 11:25:13;;;;;;;0.00;0.00;;;;;;;17.90;57.48;99437.16;5014250;28;20181;-85
2023/04/23 11:27:43;;;;;;;0.80;0.80;;;;;;;18.18;54.78;99400.59;5016144;28;20203;-84
2023/04/23 11:30:20;;;;;;;1.37;1.27;;;;;;;18.22;55.04;99412.44;5014529;28;20553;-84